City of Colorado Springs Municipal Airport
KCOS : now visible

Airfield :











YOU CAN JOIN US ON...

 
LOGIN :

Register | Disclaimer

   EN    FR    IT 

 









Legend :    VFR   Marginal VFR   IFR   Intensive IFR   Very Intensive IFR
Visi :
Ceiling :
>= 8 km
>= 3000ft
5 to 8 km
1000 to 3000 ft
1500m to 5 km
500 to 1000 ft
800 to 1500m
200 to 500 ft
< 800m
< 200 ft
Symbols :   Thunderstorms  Fog  Heavy snow  Heavy precipitations  Wind > 20 kt






- Airport Elevation : 6187 ft
- IATA code : COS


KCOS - City of Colorado Springs Municipal

CURRENT METAR :
  • 270309Z 00000KT 5SM BR BKN007 BKN045 OVC070 M12/M14 A2983 RMK AO2 T11171139

EXPIRED METARs :
  • 270256Z 18003KT 6SM BR FEW008 BKN060 OVC070 M12/M14 A2983 RMK AO2 T11171139
  • 270221Z 16005KT 5SM BR FEW007 SCT028 OVC070 M11/M13 A2981 RMK AO2 SNE17 P0001 T11111133
  • 270154Z 16007KT 2 1/2SM -SN BR SCT007 BKN028 OVC050 M11/M13 A2980 RMK AO2 TWR VIS 3 SLP166 P0000 T11111133
  • 270142Z 15006KT 2 1/2SM -SN BR SCT005 BKN025 OVC045 M11/M13 A2980 RMK AO2 TWR VIS 3 P0000 T11111133
  • 270119Z 16008KT 2SM -SN SCT005 BKN012 OVC025 M11/M13 A2979 RMK AO2 TWR VIS 3 P0000 T11061133
  • 270105Z 16009KT 1SM R17L/P6000FT -SN BR BKN005 OVC011 M11/M13 A2978 RMK AO2 P0000 T11061128
  • 270054Z 16009KT 3/4SM R17L/P6000FT -SN BR BKN005 OVC009 M10/M12 A2978 RMK AO2 TWR VIS 1 SLP153 P0000 T11001122
  • 270041Z 16010KT 1 1/2SM -SN BR BKN006 OVC014 M10/M12 A2977 RMK AO2 P0000 T11001122

TAF KCOS
Valid from the 27 at 02:00 until the 28 at 00:00 UTC


270226Z 2702/2724 15007KT 5SM BR SCT007 SCT025 OVC060
TEMPO 2702/2703 3SM -SN BR BKN007
FM270600 35007KT 2SM BR OVC002
FM271300 01005KT P6SM FEW002
FM271700 19007KT P6SM FEW200
KZDV FIR / North America



MET'MAP, your aeronautical weather chart ! - Copyright ORBIFLY December 2007 - Disclaimer

ORBIFLY MET'MAP TEAM :

Programming & Development : Alexandra Zaïnal
Concept & original design : Baudouin d'Aumeries
Assistance for programming : Marc-Olivier Méhu
Technical & hardware support : Manuel Goepfert

Contact : metmap@orbifly.com




SOURCES & CREDITS :

   NOAA       Earth
Advisory